sensor_id;sensor_type;location;lat;lon;timestamp;temperature;humidity
31733;DHT22;18312;51.486;7.144;2024-03-25T00:00:09;5.70;99.90
31733;DHT22;18312;51.486;7.144;2024-03-25T00:02:37;5.70;99.90
31733;DHT22;18312;51.486;7.144;2024-03-25T00:05:03;5.80;99.90
31733;DHT22;18312;51.486;7.144;2024-03-25T00:07:30;5.80;99.90
31733;DHT22;18312;51.486;7.144;2024-03-25T00:09:58;5.80;99.90
31733;DHT22;18312;51.486;7.144;2024-03-25T00:12:25;5.90;99.90
31733;DHT22;18312;51.486;7.144;2024-03-25T00:14:51;5.90;99.90
31733;DHT22;18312;51.486;7.144;2024-03-25T00:17:18;5.90;99.90
31733;DHT22;18312;51.486;7.144;2024-03-25T00:19:45;5.90;99.90
31733;DHT22;18312;51.486;7.144;2024-03-25T00:22:16;5.90;99.90
31733;DHT22;18312;51.486;7.144;2024-03-25T00:24:42;5.90;99.90
31733;DHT22;18312;51.486;7.144;2024-03-25T00:27:10;5.90;99.90
31733;DHT22;18312;51.486;7.144;2024-03-25T00:29:36;5.90;99.90
31733;DHT22;18312;51.486;7.144;2024-03-25T00:32:03;5.80;99.90
31733;DHT22;18312;51.486;7.144;2024-03-25T00:34:29;5.80;99.90
31733;DHT22;18312;51.486;7.144;2024-03-25T00:36:56;5.80;99.90
31733;DHT22;18312;51.486;7.144;2024-03-25T00:39:22;5.80;99.90
31733;DHT22;18312;51.486;7.144;2024-03-25T00:41:49;5.80;99.90
31733;DHT22;18312;51.486;7.144;2024-03-25T00:44:16;5.80;99.90
31733;DHT22;18312;51.486;7.144;2024-03-25T00:46:43;5.70;99.90
31733;DHT22;18312;51.486;7.144;2024-03-25T00:49:09;5.70;99.90
31733;DHT22;18312;51.486;7.144;2024-03-25T00:51:36;5.70;99.90
31733;DHT22;18312;51.486;7.144;2024-03-25T00:54:02;5.70;99.90
31733;DHT22;18312;51.486;7.144;2024-03-25T00:56:29;5.70;99.90
31733;DHT22;18312;51.486;7.144;2024-03-25T00:58:54;5.70;99.90
31733;DHT22;18312;51.486;7.144;2024-03-25T01:01:24;5.80;99.90
31733;DHT22;18312;51.486;7.144;2024-03-25T01:03:50;5.70;99.90
31733;DHT22;18312;51.486;7.144;2024-03-25T01:06:16;5.70;99.90
31733;DHT22;18312;51.486;7.144;2024-03-25T01:08:42;5.70;99.90
31733;DHT22;18312;51.486;7.144;2024-03-25T01:11:09;5.70;99.90
31733;DHT22;18312;51.486;7.144;2024-03-25T01:13:35;5.70;99.90
31733;DHT22;18312;51.486;7.144;2024-03-25T01:16:02;5.70;99.90
31733;DHT22;18312;51.486;7.144;2024-03-25T01:18:29;5.70;99.90
31733;DHT22;18312;51.486;7.144;2024-03-25T01:20:55;5.70;99.90
31733;DHT22;18312;51.486;7.144;2024-03-25T01:23:21;5.70;99.90
31733;DHT22;18312;51.486;7.144;2024-03-25T01:25:48;5.70;99.90
31733;DHT22;18312;51.486;7.144;2024-03-25T01:28:14;5.60;99.90
31733;DHT22;18312;51.486;7.144;2024-03-25T01:30:40;5.60;99.90
31733;DHT22;18312;51.486;7.144;2024-03-25T01:33:06;5.60;99.90
31733;DHT22;18312;51.486;7.144;2024-03-25T01:35:34;5.60;99.90
31733;DHT22;18312;51.486;7.144;2024-03-25T01:38:01;5.70;99.90
31733;DHT22;18312;51.486;7.144;2024-03-25T01:40:28;5.70;99.90
31733;DHT22;18312;51.486;7.144;2024-03-25T01:42:57;5.70;99.90
31733;DHT22;18312;51.486;7.144;2024-03-25T01:45:24;5.70;99.90
31733;DHT22;18312;51.486;7.144;2024-03-25T01:47:50;5.70;99.90
31733;DHT22;18312;51.486;7.144;2024-03-25T01:50:17;5.70;99.90
31733;DHT22;18312;51.486;7.144;2024-03-25T01:52:45;5.70;99.90
31733;DHT22;18312;51.486;7.144;2024-03-25T01:55:15;5.80;99.90
31733;DHT22;18312;51.486;7.144;2024-03-25T01:57:42;5.70;99.90
31733;DHT22;18312;51.486;7.144;2024-03-25T02:00:10;5.70;99.90
31733;DHT22;18312;51.486;7.144;2024-03-25T02:02:39;5.70;99.90
31733;DHT22;18312;51.486;7.144;2024-03-25T02:05:09;5.70;99.90
31733;DHT22;18312;51.486;7.144;2024-03-25T02:07:36;5.70;99.90
31733;DHT22;18312;51.486;7.144;2024-03-25T02:10:07;5.60;99.90
31733;DHT22;18312;51.486;7.144;2024-03-25T02:12:35;5.50;99.90
31733;DHT22;18312;51.486;7.144;2024-03-25T02:15:03;5.50;99.90
31733;DHT22;18312;51.486;7.144;2024-03-25T02:17:30;5.50;99.90
31733;DHT22;18312;51.486;7.144;2024-03-25T02:19:56;5.50;99.90
31733;DHT22;18312;51.486;7.144;2024-03-25T02:22:22;5.50;99.90
31733;DHT22;18312;51.486;7.144;2024-03-25T02:24:51;5.50;99.90
31733;DHT22;18312;51.486;7.144;2024-03-25T02:27:19;5.50;99.90
31733;DHT22;18312;51.486;7.144;2024-03-25T02:29:47;5.60;99.90
31733;DHT22;18312;51.486;7.144;2024-03-25T02:32:13;5.50;99.90
31733;DHT22;18312;51.486;7.144;2024-03-25T02:34:43;5.50;99.90
31733;DHT22;18312;51.486;7.144;2024-03-25T02:37:09;5.30;99.90
31733;DHT22;18312;51.486;7.144;2024-03-25T02:39:37;5.10;99.90
31733;DHT22;18312;51.486;7.144;2024-03-25T02:42:03;5.00;99.90
31733;DHT22;18312;51.486;7.144;2024-03-25T02:44:32;4.80;99.90
31733;DHT22;18312;51.486;7.144;2024-03-25T02:47:02;4.70;99.90
31733;DHT22;18312;51.486;7.144;2024-03-25T02:49:29;4.60;99.90
31733;DHT22;18312;51.486;7.144;2024-03-25T02:51:55;4.60;99.90
31733;DHT22;18312;51.486;7.144;2024-03-25T02:54:22;4.50;99.90
31733;DHT22;18312;51.486;7.144;2024-03-25T02:56:48;4.50;99.90
31733;DHT22;18312;51.486;7.144;2024-03-25T02:59:14;4.50;99.90
31733;DHT22;18312;51.486;7.144;2024-03-25T03:01:41;4.40;99.90
31733;DHT22;18312;51.486;7.144;2024-03-25T03:04:08;4.30;99.90
31733;DHT22;18312;51.486;7.144;2024-03-25T03:06:34;4.30;99.90
31733;DHT22;18312;51.486;7.144;2024-03-25T03:09:01;4.30;99.90
31733;DHT22;18312;51.486;7.144;2024-03-25T03:11:26;4.30;99.90
31733;DHT22;18312;51.486;7.144;2024-03-25T03:13:53;4.30;99.90
31733;DHT22;18312;51.486;7.144;2024-03-25T03:16:19;4.40;99.90
31733;DHT22;18312;51.486;7.144;2024-03-25T03:18:47;4.50;99.90
31733;DHT22;18312;51.486;7.144;2024-03-25T03:21:13;4.50;99.90
31733;DHT22;18312;51.486;7.144;2024-03-25T03:23:39;4.60;99.90
31733;DHT22;18312;51.486;7.144;2024-03-25T03:26:05;4.60;99.90
31733;DHT22;18312;51.486;7.144;2024-03-25T03:28:32;4.60;99.90
31733;DHT22;18312;51.486;7.144;2024-03-25T03:30:58;4.70;99.90
31733;DHT22;18312;51.486;7.144;2024-03-25T03:33:25;4.60;99.90
31733;DHT22;18312;51.486;7.144;2024-03-25T03:35:53;4.60;99.90
31733;DHT22;18312;51.486;7.144;2024-03-25T03:38:21;4.50;99.90
31733;DHT22;18312;51.486;7.144;2024-03-25T03:40:56;4.50;99.90
31733;DHT22;18312;51.486;7.144;2024-03-25T03:43:23;4.50;99.90
31733;DHT22;18312;51.486;7.144;2024-03-25T03:45:49;4.50;99.90
31733;DHT22;18312;51.486;7.144;2024-03-25T03:48:16;4.40;99.90
31733;DHT22;18312;51.486;7.144;2024-03-25T03:50:42;4.40;99.90
31733;DHT22;18312;51.486;7.144;2024-03-25T03:53:10;4.40;99.90
31733;DHT22;18312;51.486;7.144;2024-03-25T03:55:36;4.50;99.90
31733;DHT22;18312;51.486;7.144;2024-03-25T03:58:03;4.50;99.90
31733;DHT22;18312;51.486;7.144;2024-03-25T04:00:29;4.40;99.90
31733;DHT22;18312;51.486;7.144;2024-03-25T04:02:56;4.40;99.90
31733;DHT22;18312;51.486;7.144;2024-03-25T04:05:21;4.30;99.90
31733;DHT22;18312;51.486;7.144;2024-03-25T04:07:48;4.30;99.90
31733;DHT22;18312;51.486;7.144;2024-03-25T04:10:15;4.20;99.90
31733;DHT22;18312;51.486;7.144;2024-03-25T04:12:42;4.10;99.90
31733;DHT22;18312;51.486;7.144;2024-03-25T04:15:08;4.00;99.90
31733;DHT22;18312;51.486;7.144;2024-03-25T04:17:40;4.00;99.90
31733;DHT22;18312;51.486;7.144;2024-03-25T04:20:07;3.90;99.90
31733;DHT22;18312;51.486;7.144;2024-03-25T04:22:36;3.90;99.90
31733;DHT22;18312;51.486;7.144;2024-03-25T04:25:02;3.80;99.90
31733;DHT22;18312;51.486;7.144;2024-03-25T04:27:30;3.80;99.90
31733;DHT22;18312;51.486;7.144;2024-03-25T04:29:56;3.70;99.90
31733;DHT22;18312;51.486;7.144;2024-03-25T04:32:23;3.70;99.90
31733;DHT22;18312;51.486;7.144;2024-03-25T04:34:48;3.60;99.90
31733;DHT22;18312;51.486;7.144;2024-03-25T04:37:15;3.60;99.90
31733;DHT22;18312;51.486;7.144;2024-03-25T04:39:41;3.50;99.90
31733;DHT22;18312;51.486;7.144;2024-03-25T04:42:07;3.40;99.90
31733;DHT22;18312;51.486;7.144;2024-03-25T04:44:34;3.50;99.90
31733;DHT22;18312;51.486;7.144;2024-03-25T04:47:00;3.40;99.90
31733;DHT22;18312;51.486;7.144;2024-03-25T04:49:26;3.40;99.90
31733;DHT22;18312;51.486;7.144;2024-03-25T04:51:52;3.30;99.90
31733;DHT22;18312;51.486;7.144;2024-03-25T04:54:18;3.20;99.90
31733;DHT22;18312;51.486;7.144;2024-03-25T04:56:43;3.30;99.90
31733;DHT22;18312;51.486;7.144;2024-03-25T04:59:09;3.30;99.90
31733;DHT22;18312;51.486;7.144;2024-03-25T05:01:37;3.20;99.90
31733;DHT22;18312;51.486;7.144;2024-03-25T05:04:03;3.20;99.90
31733;DHT22;18312;51.486;7.144;2024-03-25T05:06:29;3.20;99.90
31733;DHT22;18312;51.486;7.144;2024-03-25T05:08:55;3.20;99.90
31733;DHT22;18312;51.486;7.144;2024-03-25T05:11:20;3.20;99.90
31733;DHT22;18312;51.486;7.144;2024-03-25T05:13:46;3.20;99.90
31733;DHT22;18312;51.486;7.144;2024-03-25T05:16:13;3.20;99.90
31733;DHT22;18312;51.486;7.144;2024-03-25T05:18:40;3.20;99.90
31733;DHT22;18312;51.486;7.144;2024-03-25T05:21:06;3.20;99.90
31733;DHT22;18312;51.486;7.144;2024-03-25T05:23:32;3.20;99.90
31733;DHT22;18312;51.486;7.144;2024-03-25T05:25:58;3.20;99.90
31733;DHT22;18312;51.486;7.144;2024-03-25T05:28:23;3.30;99.90
31733;DHT22;18312;51.486;7.144;2024-03-25T05:30:49;3.20;99.90
31733;DHT22;18312;51.486;7.144;2024-03-25T05:33:15;3.20;99.90
31733;DHT22;18312;51.486;7.144;2024-03-25T05:35:42;3.20;99.90
31733;DHT22;18312;51.486;7.144;2024-03-25T05:38:08;3.10;99.90
31733;DHT22;18312;51.486;7.144;2024-03-25T05:40:34;3.10;99.90
31733;DHT22;18312;51.486;7.144;2024-03-25T05:43:00;3.20;99.90
31733;DHT22;18312;51.486;7.144;2024-03-25T05:45:26;3.20;99.90
31733;DHT22;18312;51.486;7.144;2024-03-25T05:47:53;3.20;99.90
31733;DHT22;18312;51.486;7.144;2024-03-25T05:50:19;3.20;99.90
31733;DHT22;18312;51.486;7.144;2024-03-25T05:52:46;3.30;99.90
31733;DHT22;18312;51.486;7.144;2024-03-25T05:55:12;3.30;99.90
31733;DHT22;18312;51.486;7.144;2024-03-25T05:57:38;3.40;99.90
31733;DHT22;18312;51.486;7.144;2024-03-25T06:00:05;3.40;99.90
31733;DHT22;18312;51.486;7.144;2024-03-25T06:02:31;3.50;99.90
31733;DHT22;18312;51.486;7.144;2024-03-25T06:04:57;3.60;99.90
31733;DHT22;18312;51.486;7.144;2024-03-25T06:07:23;3.70;99.90
31733;DHT22;18312;51.486;7.144;2024-03-25T06:09:50;3.90;99.90
31733;DHT22;18312;51.486;7.144;2024-03-25T06:12:16;4.20;99.90
31733;DHT22;18312;51.486;7.144;2024-03-25T06:14:42;4.40;99.90
31733;DHT22;18312;51.486;7.144;2024-03-25T06:17:08;4.60;99.90
31733;DHT22;18312;51.486;7.144;2024-03-25T06:19:34;4.70;99.90
31733;DHT22;18312;51.486;7.144;2024-03-25T06:22:00;4.70;99.90
31733;DHT22;18312;51.486;7.144;2024-03-25T06:24:26;4.80;99.90
31733;DHT22;18312;51.486;7.144;2024-03-25T06:26:53;4.90;99.90
31733;DHT22;18312;51.486;7.144;2024-03-25T06:29:19;4.90;99.90
31733;DHT22;18312;51.486;7.144;2024-03-25T06:31:44;5.10;99.90
31733;DHT22;18312;51.486;7.144;2024-03-25T06:34:29;5.10;99.90
31733;DHT22;18312;51.486;7.144;2024-03-25T06:36:54;5.30;99.90
31733;DHT22;18312;51.486;7.144;2024-03-25T06:39:20;5.40;99.90
31733;DHT22;18312;51.486;7.144;2024-03-25T06:41:47;5.50;99.90
31733;DHT22;18312;51.486;7.144;2024-03-25T06:44:14;5.50;99.90
31733;DHT22;18312;51.486;7.144;2024-03-25T06:46:40;5.70;99.90
31733;DHT22;18312;51.486;7.144;2024-03-25T06:49:05;5.90;99.90
31733;DHT22;18312;51.486;7.144;2024-03-25T06:51:31;6.20;99.90
31733;DHT22;18312;51.486;7.144;2024-03-25T06:53:59;6.70;99.90
31733;DHT22;18312;51.486;7.144;2024-03-25T06:56:25;7.30;99.90
31733;DHT22;18312;51.486;7.144;2024-03-25T06:58:51;8.40;99.90
31733;DHT22;18312;51.486;7.144;2024-03-25T07:01:18;8.90;99.90
31733;DHT22;18312;51.486;7.144;2024-03-25T07:03:44;9.60;99.90
31733;DHT22;18312;51.486;7.144;2024-03-25T07:06:09;9.30;99.90
31733;DHT22;18312;51.486;7.144;2024-03-25T07:08:35;8.50;99.90
31733;DHT22;18312;51.486;7.144;2024-03-25T07:11:01;9.20;99.90
31733;DHT22;18312;51.486;7.144;2024-03-25T07:13:27;10.80;99.90
31733;DHT22;18312;51.486;7.144;2024-03-25T07:15:53;11.10;99.90
31733;DHT22;18312;51.486;7.144;2024-03-25T07:18:20;11.70;99.90
31733;DHT22;18312;51.486;7.144;2024-03-25T07:20:46;11.90;99.70
31733;DHT22;18312;51.486;7.144;2024-03-25T07:23:12;11.50;99.50
31733;DHT22;18312;51.486;7.144;2024-03-25T07:25:38;10.70;99.90
31733;DHT22;18312;51.486;7.144;2024-03-25T07:28:05;10.90;99.90
31733;DHT22;18312;51.486;7.144;2024-03-25T07:30:31;11.20;99.90
31733;DHT22;18312;51.486;7.144;2024-03-25T07:32:58;11.70;98.80
31733;DHT22;18312;51.486;7.144;2024-03-25T07:35:25;11.20;99.90
31733;DHT22;18312;51.486;7.144;2024-03-25T07:37:52;10.30;99.90
31733;DHT22;18312;51.486;7.144;2024-03-25T07:40:18;10.60;99.90
31733;DHT22;18312;51.486;7.144;2024-03-25T07:42:44;12.00;99.90
31733;DHT22;18312;51.486;7.144;2024-03-25T07:45:11;12.50;97.40
31733;DHT22;18312;51.486;7.144;2024-03-25T07:47:37;12.80;96.60
31733;DHT22;18312;51.486;7.144;2024-03-25T07:50:03;12.80;96.20
31733;DHT22;18312;51.486;7.144;2024-03-25T07:52:31;12.90;95.00
31733;DHT22;18312;51.486;7.144;2024-03-25T07:54:57;12.00;97.70
31733;DHT22;18312;51.486;7.144;2024-03-25T07:57:23;11.50;99.50
31733;DHT22;18312;51.486;7.144;2024-03-25T07:59:49;10.90;99.90
31733;DHT22;18312;51.486;7.144;2024-03-25T08:02:15;10.50;99.90
31733;DHT22;18312;51.486;7.144;2024-03-25T08:04:41;10.00;99.90
31733;DHT22;18312;51.486;7.144;2024-03-25T08:07:07;10.30;99.90
31733;DHT22;18312;51.486;7.144;2024-03-25T08:09:34;10.10;99.90
31733;DHT22;18312;51.486;7.144;2024-03-25T08:12:00;9.90;99.90
31733;DHT22;18312;51.486;7.144;2024-03-25T08:14:26;9.60;99.90
31733;DHT22;18312;51.486;7.144;2024-03-25T08:16:52;9.30;99.90
31733;DHT22;18312;51.486;7.144;2024-03-25T08:19:18;8.80;99.90
31733;DHT22;18312;51.486;7.144;2024-03-25T08:21:44;8.60;99.90
31733;DHT22;18312;51.486;7.144;2024-03-25T08:24:13;8.60;99.90
31733;DHT22;18312;51.486;7.144;2024-03-25T08:26:41;8.70;99.90
31733;DHT22;18312;51.486;7.144;2024-03-25T08:29:06;8.90;99.90
31733;DHT22;18312;51.486;7.144;2024-03-25T08:31:32;9.40;99.90
31733;DHT22;18312;51.486;7.144;2024-03-25T08:33:58;9.40;99.90
31733;DHT22;18312;51.486;7.144;2024-03-25T08:36:24;9.10;99.90
31733;DHT22;18312;51.486;7.144;2024-03-25T08:38:50;8.90;99.90
31733;DHT22;18312;51.486;7.144;2024-03-25T08:41:16;8.90;99.90
31733;DHT22;18312;51.486;7.144;2024-03-25T08:43:43;9.00;99.90
31733;DHT22;18312;51.486;7.144;2024-03-25T08:46:09;9.10;99.90
31733;DHT22;18312;51.486;7.144;2024-03-25T08:48:35;9.20;99.90
31733;DHT22;18312;51.486;7.144;2024-03-25T08:51:01;9.30;99.90
31733;DHT22;18312;51.486;7.144;2024-03-25T08:53:27;9.40;99.90
31733;DHT22;18312;51.486;7.144;2024-03-25T08:55:53;9.60;99.90
31733;DHT22;18312;51.486;7.144;2024-03-25T08:58:19;9.80;99.90
31733;DHT22;18312;51.486;7.144;2024-03-25T09:00:46;10.00;99.90
31733;DHT22;18312;51.486;7.144;2024-03-25T09:03:12;10.00;99.90
31733;DHT22;18312;51.486;7.144;2024-03-25T09:05:37;10.50;99.90
31733;DHT22;18312;51.486;7.144;2024-03-25T09:08:04;11.10;98.10
31733;DHT22;18312;51.486;7.144;2024-03-25T09:10:30;10.70;98.30
31733;DHT22;18312;51.486;7.144;2024-03-25T09:13:14;10.60;98.50
31733;DHT22;18312;51.486;7.144;2024-03-25T09:15:41;10.30;98.70
31733;DHT22;18312;51.486;7.144;2024-03-25T09:18:09;10.50;99.50
31733;DHT22;18312;51.486;7.144;2024-03-25T09:20:34;11.50;95.90
31733;DHT22;18312;51.486;7.144;2024-03-25T09:23:00;11.90;94.60
31733;DHT22;18312;51.486;7.144;2024-03-25T09:25:26;11.30;94.00
31733;DHT22;18312;51.486;7.144;2024-03-25T09:27:52;10.80;94.50
31733;DHT22;18312;51.486;7.144;2024-03-25T09:30:18;10.70;96.70
31733;DHT22;18312;51.486;7.144;2024-03-25T09:32:45;10.70;98.60
31733;DHT22;18312;51.486;7.144;2024-03-25T09:35:12;11.50;95.00
31733;DHT22;18312;51.486;7.144;2024-03-25T09:37:38;11.70;94.20
31733;DHT22;18312;51.486;7.144;2024-03-25T09:40:05;11.40;92.50
31733;DHT22;18312;51.486;7.144;2024-03-25T09:42:34;11.20;93.30
31733;DHT22;18312;51.486;7.144;2024-03-25T09:45:02;11.20;93.30
31733;DHT22;18312;51.486;7.144;2024-03-25T09:47:28;11.30;94.40
31733;DHT22;18312;51.486;7.144;2024-03-25T09:49:54;11.00;93.70
31733;DHT22;18312;51.486;7.144;2024-03-25T09:52:21;12.90;91.30
31733;DHT22;18312;51.486;7.144;2024-03-25T09:54:47;16.00;77.30
31733;DHT22;18312;51.486;7.144;2024-03-25T09:57:14;15.50;74.40
31733;DHT22;18312;51.486;7.144;2024-03-25T09:59:40;13.90;78.40
31733;DHT22;18312;51.486;7.144;2024-03-25T10:02:07;13.80;80.90
31733;DHT22;18312;51.486;7.144;2024-03-25T10:04:38;13.80;76.60
31733;DHT22;18312;51.486;7.144;2024-03-25T10:07:06;13.00;78.30
31733;DHT22;18312;51.486;7.144;2024-03-25T10:09:34;12.80;79.40
31733;DHT22;18312;51.486;7.144;2024-03-25T10:12:00;12.40;82.70
31733;DHT22;18312;51.486;7.144;2024-03-25T10:14:26;12.50;81.30
31733;DHT22;18312;51.486;7.144;2024-03-25T10:16:52;12.70;82.50
31733;DHT22;18312;51.486;7.144;2024-03-25T10:19:18;12.40;81.80
31733;DHT22;18312;51.486;7.144;2024-03-25T10:21:44;12.40;84.20
31733;DHT22;18312;51.486;7.144;2024-03-25T10:24:11;12.40;88.30
31733;DHT22;18312;51.486;7.144;2024-03-25T10:26:38;12.60;83.10
31733;DHT22;18312;51.486;7.144;2024-03-25T10:29:05;12.80;86.30
31733;DHT22;18312;51.486;7.144;2024-03-25T10:31:32;12.70;81.40
31733;DHT22;18312;51.486;7.144;2024-03-25T10:33:58;12.50;80.50
31733;DHT22;18312;51.486;7.144;2024-03-25T10:36:24;12.40;83.70
31733;DHT22;18312;51.486;7.144;2024-03-25T10:38:54;12.40;82.20
31733;DHT22;18312;51.486;7.144;2024-03-25T10:41:21;12.10;81.80
31733;DHT22;18312;51.486;7.144;2024-03-25T10:43:49;11.80;81.10
31733;DHT22;18312;51.486;7.144;2024-03-25T10:46:18;12.00;81.60
31733;DHT22;18312;51.486;7.144;2024-03-25T10:48:53;11.90;81.40
31733;DHT22;18312;51.486;7.144;2024-03-25T10:51:21;12.00;82.70
31733;DHT22;18312;51.486;7.144;2024-03-25T10:53:51;11.70;80.10
31733;DHT22;18312;51.486;7.144;2024-03-25T10:56:20;12.10;81.80
31733;DHT22;18312;51.486;7.144;2024-03-25T10:58:49;12.40;81.20
31733;DHT22;18312;51.486;7.144;2024-03-25T11:01:17;12.10;79.20
31733;DHT22;18312;51.486;7.144;2024-03-25T11:03:44;12.30;80.50
31733;DHT22;18312;51.486;7.144;2024-03-25T11:06:10;12.30;76.20
31733;DHT22;18312;51.486;7.144;2024-03-25T11:08:37;12.20;80.00
31733;DHT22;18312;51.486;7.144;2024-03-25T11:11:03;12.50;77.90
31733;DHT22;18312;51.486;7.144;2024-03-25T11:13:29;12.50;77.40
31733;DHT22;18312;51.486;7.144;2024-03-25T11:15:56;12.00;75.30
31733;DHT22;18312;51.486;7.144;2024-03-25T11:18:23;11.90;78.00
31733;DHT22;18312;51.486;7.144;2024-03-25T11:20:59;11.90;79.20
31733;DHT22;18312;51.486;7.144;2024-03-25T11:23:34;12.40;79.10
31733;DHT22;18312;51.486;7.144;2024-03-25T11:26:01;12.90;81.00
31733;DHT22;18312;51.486;7.144;2024-03-25T11:28:27;12.80;77.60
31733;DHT22;18312;51.486;7.144;2024-03-25T11:30:53;12.90;76.10
31733;DHT22;18312;51.486;7.144;2024-03-25T11:33:21;12.00;76.80
31733;DHT22;18312;51.486;7.144;2024-03-25T11:35:47;11.90;75.10
31733;DHT22;18312;51.486;7.144;2024-03-25T11:38:12;12.20;77.30
31733;DHT22;18312;51.486;7.144;2024-03-25T11:40:38;12.70;75.30
31733;DHT22;18312;51.486;7.144;2024-03-25T11:43:07;13.10;75.00
31733;DHT22;18312;51.486;7.144;2024-03-25T11:45:33;12.90;74.20
31733;DHT22;18312;51.486;7.144;2024-03-25T11:47:59;13.30;74.70
31733;DHT22;18312;51.486;7.144;2024-03-25T11:50:26;13.50;74.90
31733;DHT22;18312;51.486;7.144;2024-03-25T11:52:52;13.20;74.20
31733;DHT22;18312;51.486;7.144;2024-03-25T11:55:18;13.20;72.80
31733;DHT22;18312;51.486;7.144;2024-03-25T11:57:44;13.30;70.90
31733;DHT22;18312;51.486;7.144;2024-03-25T12:00:10;13.10;72.10
31733;DHT22;18312;51.486;7.144;2024-03-25T12:02:37;13.00;69.50
31733;DHT22;18312;51.486;7.144;2024-03-25T12:05:03;13.20;73.00
31733;DHT22;18312;51.486;7.144;2024-03-25T12:07:33;12.70;70.30
31733;DHT22;18312;51.486;7.144;2024-03-25T12:09:59;12.90;70.30
31733;DHT22;18312;51.486;7.144;2024-03-25T12:12:43;12.80;73.00
31733;DHT22;18312;51.486;7.144;2024-03-25T12:15:09;12.90;72.70
31733;DHT22;18312;51.486;7.144;2024-03-25T12:17:35;12.80;70.30
31733;DHT22;18312;51.486;7.144;2024-03-25T12:20:04;12.50;73.20
31733;DHT22;18312;51.486;7.144;2024-03-25T12:22:30;12.50;75.30
31733;DHT22;18312;51.486;7.144;2024-03-25T12:24:59;12.00;73.40
31733;DHT22;18312;51.486;7.144;2024-03-25T12:27:25;11.60;73.70
31733;DHT22;18312;51.486;7.144;2024-03-25T12:29:58;12.30;75.90
31733;DHT22;18312;51.486;7.144;2024-03-25T12:32:31;13.10;71.90
31733;DHT22;18312;51.486;7.144;2024-03-25T12:34:58;13.80;74.20
31733;DHT22;18312;51.486;7.144;2024-03-25T12:37:25;14.20;68.30
31733;DHT22;18312;51.486;7.144;2024-03-25T12:39:51;14.50;66.60
31733;DHT22;18312;51.486;7.144;2024-03-25T12:42:19;14.10;64.60
31733;DHT22;18312;51.486;7.144;2024-03-25T12:44:46;14.40;66.30
31733;DHT22;18312;51.486;7.144;2024-03-25T12:47:12;14.70;66.60
31733;DHT22;18312;51.486;7.144;2024-03-25T12:49:38;15.10;62.90
31733;DHT22;18312;51.486;7.144;2024-03-25T12:52:05;15.40;64.00
31733;DHT22;18312;51.486;7.144;2024-03-25T12:54:32;15.40;63.50
31733;DHT22;18312;51.486;7.144;2024-03-25T12:56:58;15.60;61.30
31733;DHT22;18312;51.486;7.144;2024-03-25T12:59:25;15.60;63.00
31733;DHT22;18312;51.486;7.144;2024-03-25T13:01:51;15.70;58.00
31733;DHT22;18312;51.486;7.144;2024-03-25T13:04:17;15.50;57.60
31733;DHT22;18312;51.486;7.144;2024-03-25T13:06:43;15.30;60.50
31733;DHT22;18312;51.486;7.144;2024-03-25T13:09:11;15.20;58.80
31733;DHT22;18312;51.486;7.144;2024-03-25T13:11:37;15.20;57.90
31733;DHT22;18312;51.486;7.144;2024-03-25T13:14:04;15.30;58.00
31733;DHT22;18312;51.486;7.144;2024-03-25T13:16:31;15.50;58.00
31733;DHT22;18312;51.486;7.144;2024-03-25T13:18:57;15.30;55.60
31733;DHT22;18312;51.486;7.144;2024-03-25T13:21:23;15.60;56.40
31733;DHT22;18312;51.486;7.144;2024-03-25T13:23:49;15.60;54.80
31733;DHT22;18312;51.486;7.144;2024-03-25T13:26:15;15.50;54.30
31733;DHT22;18312;51.486;7.144;2024-03-25T13:28:41;15.20;55.10
31733;DHT22;18312;51.486;7.144;2024-03-25T13:31:07;15.50;54.90
31733;DHT22;18312;51.486;7.144;2024-03-25T13:33:35;15.70;54.40
31733;DHT22;18312;51.486;7.144;2024-03-25T13:36:00;15.50;54.50
31733;DHT22;18312;51.486;7.144;2024-03-25T13:38:28;15.60;55.70
31733;DHT22;18312;51.486;7.144;2024-03-25T13:40:53;14.80;52.10
31733;DHT22;18312;51.486;7.144;2024-03-25T13:43:19;15.00;54.70
31733;DHT22;18312;51.486;7.144;2024-03-25T13:45:49;15.20;52.70
31733;DHT22;18312;51.486;7.144;2024-03-25T13:48:15;15.50;53.90
31733;DHT22;18312;51.486;7.144;2024-03-25T13:50:42;15.60;50.90
31733;DHT22;18312;51.486;7.144;2024-03-25T13:53:09;15.50;52.60
31733;DHT22;18312;51.486;7.144;2024-03-25T13:55:35;15.60;51.40
31733;DHT22;18312;51.486;7.144;2024-03-25T13:58:01;15.80;52.40
31733;DHT22;18312;51.486;7.144;2024-03-25T14:00:27;16.10;49.90
31733;DHT22;18312;51.486;7.144;2024-03-25T14:02:54;15.90;47.20
31733;DHT22;18312;51.486;7.144;2024-03-25T14:05:20;15.80;50.20
31733;DHT22;18312;51.486;7.144;2024-03-25T14:07:47;16.00;49.60
31733;DHT22;18312;51.486;7.144;2024-03-25T14:10:13;15.70;49.00
31733;DHT22;18312;51.486;7.144;2024-03-25T14:12:39;15.50;48.10
31733;DHT22;18312;51.486;7.144;2024-03-25T14:15:06;15.50;50.40
31733;DHT22;18312;51.486;7.144;2024-03-25T14:17:32;15.60;49.70
31733;DHT22;18312;51.486;7.144;2024-03-25T14:19:58;15.50;49.40
31733;DHT22;18312;51.486;7.144;2024-03-25T14:22:24;15.60;49.10
31733;DHT22;18312;51.486;7.144;2024-03-25T14:24:52;15.90;48.40
31733;DHT22;18312;51.486;7.144;2024-03-25T14:27:18;15.70;48.80
31733;DHT22;18312;51.486;7.144;2024-03-25T14:29:43;15.40;46.80
31733;DHT22;18312;51.486;7.144;2024-03-25T14:32:09;15.50;48.10
31733;DHT22;18312;51.486;7.144;2024-03-25T14:34:36;15.50;47.50
31733;DHT22;18312;51.486;7.144;2024-03-25T14:37:01;15.20;48.60
31733;DHT22;18312;51.486;7.144;2024-03-25T14:39:27;15.50;49.90
31733;DHT22;18312;51.486;7.144;2024-03-25T14:41:55;15.60;48.10
31733;DHT22;18312;51.486;7.144;2024-03-25T14:44:20;15.30;44.70
31733;DHT22;18312;51.486;7.144;2024-03-25T14:46:46;15.30;48.40
31733;DHT22;18312;51.486;7.144;2024-03-25T14:49:12;15.10;46.60
31733;DHT22;18312;51.486;7.144;2024-03-25T14:51:38;15.00;47.10
31733;DHT22;18312;51.486;7.144;2024-03-25T14:54:05;15.30;48.40
31733;DHT22;18312;51.486;7.144;2024-03-25T14:56:31;14.80;45.40
31733;DHT22;18312;51.486;7.144;2024-03-25T14:58:58;14.70;46.70
31733;DHT22;18312;51.486;7.144;2024-03-25T15:01:24;14.50;45.80
31733;DHT22;18312;51.486;7.144;2024-03-25T15:03:50;13.80;48.30
31733;DHT22;18312;51.486;7.144;2024-03-25T15:06:16;13.60;46.90
31733;DHT22;18312;51.486;7.144;2024-03-25T15:08:42;14.20;49.50
31733;DHT22;18312;51.486;7.144;2024-03-25T15:11:10;14.10;46.60
31733;DHT22;18312;51.486;7.144;2024-03-25T15:13:35;13.70;46.90
31733;DHT22;18312;51.486;7.144;2024-03-25T15:16:05;13.40;47.10
31733;DHT22;18312;51.486;7.144;2024-03-25T15:18:31;13.30;48.40
31733;DHT22;18312;51.486;7.144;2024-03-25T15:21:00;13.10;48.40
31733;DHT22;18312;51.486;7.144;2024-03-25T15:23:26;12.90;50.40
31733;DHT22;18312;51.486;7.144;2024-03-25T15:25:52;13.10;47.80
31733;DHT22;18312;51.486;7.144;2024-03-25T15:28:18;13.30;47.50
31733;DHT22;18312;51.486;7.144;2024-03-25T15:30:45;13.50;47.50
31733;DHT22;18312;51.486;7.144;2024-03-25T15:33:14;13.20;46.00